sensor_id;sensor_type;location;lat;lon;timestamp;temperature;humidity
67165;SHT31;54093;50.014;19.984;2023-02-28T00:03:30;0.40;73.62
67165;SHT31;54093;50.014;19.984;2023-02-28T00:12:52;0.37;74.09
67165;SHT31;54093;50.014;19.984;2023-02-28T00:22:13;0.31;74.04
67165;SHT31;54093;50.014;19.984;2023-02-28T00:31:34;0.29;74.42
67165;SHT31;54093;50.014;19.984;2023-02-28T00:40:55;0.29;74.28
67165;SHT31;54093;50.014;19.984;2023-02-28T00:50:18;0.23;73.96
67165;SHT31;54093;50.014;19.984;2023-02-28T00:59:39;0.23;74.62
67165;SHT31;54093;50.014;19.984;2023-02-28T01:09:00;0.21;74.62
67165;SHT31;54093;50.014;19.984;2023-02-28T01:18:22;0.13;74.30
67165;SHT31;54093;50.014;19.984;2023-02-28T01:27:43;0.11;74.31
67165;SHT31;54093;50.014;19.984;2023-02-28T01:37:04;0.10;74.33
67165;SHT31;54093;50.014;19.984;2023-02-28T01:46:25;0.05;74.43
67165;SHT31;54093;50.014;19.984;2023-02-28T01:55:48;0.05;74.91
67165;SHT31;54093;50.014;19.984;2023-02-28T02:05:26;0.02;75.29
67165;SHT31;54093;50.014;19.984;2023-02-28T02:15:13;-0.02;75.21
67165;SHT31;54093;50.014;19.984;2023-02-28T02:24:59;-0.10;75.03
67165;SHT31;54093;50.014;19.984;2023-02-28T02:44:02;-0.23;74.30
67165;SHT31;54093;50.014;19.984;2023-02-28T02:53:40;-0.31;74.71
67165;SHT31;54093;50.014;19.984;2023-02-28T03:03:02;-0.46;74.27
67165;SHT31;54093;50.014;19.984;2023-02-28T03:12:40;-0.58;74.69
67165;SHT31;54093;50.014;19.984;2023-02-28T03:31:44;-0.77;73.97
67165;SHT31;54093;50.014;19.984;2023-02-28T03:50:42;-0.84;74.08
67165;SHT31;54093;50.014;19.984;2023-02-28T04:00:21;-0.97;73.96
67165;SHT31;54093;50.014;19.984;2023-02-28T04:09:46;-1.12;74.00
67165;SHT31;54093;50.014;19.984;2023-02-28T04:19:09;-1.25;74.94
67165;SHT31;54093;50.014;19.984;2023-02-28T04:28:32;-1.32;74.90
67165;SHT31;54093;50.014;19.984;2023-02-28T04:37:52;-1.48;74.97
67165;SHT31;54093;50.014;19.984;2023-02-28T04:47:13;-1.49;74.92
67165;SHT31;54093;50.014;19.984;2023-02-28T04:56:34;-1.65;73.92
67165;SHT31;54093;50.014;19.984;2023-02-28T05:05:56;-1.65;75.01
67165;SHT31;54093;50.014;19.984;2023-02-28T05:15:17;-1.77;74.41
67165;SHT31;54093;50.014;19.984;2023-02-28T05:24:38;-1.87;73.93
67165;SHT31;54093;50.014;19.984;2023-02-28T05:33:59;-1.97;75.18
67165;SHT31;54093;50.014;19.984;2023-02-28T05:43:21;-1.94;74.61
67165;SHT31;54093;50.014;19.984;2023-02-28T05:52:42;-2.00;75.50
67165;SHT31;54093;50.014;19.984;2023-02-28T06:02:03;-1.96;74.98
67165;SHT31;54093;50.014;19.984;2023-02-28T06:11:27;-1.86;76.08
67165;SHT31;54093;50.014;19.984;2023-02-28T06:20:55;-1.66;76.68
67165;SHT31;54093;50.014;19.984;2023-02-28T06:30:16;-1.49;76.94
67165;SHT31;54093;50.014;19.984;2023-02-28T06:39:37;-1.42;77.13
67165;SHT31;54093;50.014;19.984;2023-02-28T06:48:58;-1.42;76.56
67165;SHT31;54093;50.014;19.984;2023-02-28T06:58:19;-1.34;77.11
67165;SHT31;54093;50.014;19.984;2023-02-28T07:07:40;-1.25;76.62
67165;SHT31;54093;50.014;19.984;2023-02-28T07:17:06;-1.15;77.06
67165;SHT31;54093;50.014;19.984;2023-02-28T07:26:27;-1.11;76.90
67165;SHT31;54093;50.014;19.984;2023-02-28T07:35:48;-1.04;77.18
67165;SHT31;54093;50.014;19.984;2023-02-28T07:45:10;-0.79;76.76
67165;SHT31;54093;50.014;19.984;2023-02-28T07:54:33;-0.62;76.27
67165;SHT31;54093;50.014;19.984;2023-02-28T08:03:54;-0.46;75.44
67165;SHT31;54093;50.014;19.984;2023-02-28T08:13:15;-0.35;74.09
67165;SHT31;54093;50.014;19.984;2023-02-28T08:22:36;-0.02;74.31
67165;SHT31;54093;50.014;19.984;2023-02-28T08:31:57;0.40;73.65
67165;SHT31;54093;50.014;19.984;2023-02-28T08:41:19;0.71;70.48
67165;SHT31;54093;50.014;19.984;2023-02-28T08:50:40;1.98;72.49
67165;SHT31;54093;50.014;19.984;2023-02-28T09:00:02;2.90;63.65
67165;SHT31;54093;50.014;19.984;2023-02-28T09:09:25;3.81;63.09
67165;SHT31;54093;50.014;19.984;2023-02-28T09:18:46;4.35;57.31
67165;SHT31;54093;50.014;19.984;2023-02-28T09:28:07;4.31;57.91
67165;SHT31;54093;50.014;19.984;2023-02-28T09:37:28;4.15;55.38
67165;SHT31;54093;50.014;19.984;2023-02-28T09:46:54;4.17;54.27
67165;SHT31;54093;50.014;19.984;2023-02-28T09:56:27;4.14;53.67
67165;SHT31;54093;50.014;19.984;2023-02-28T10:15:31;4.45;52.71
67165;SHT31;54093;50.014;19.984;2023-02-28T10:24:54;4.80;53.59
67165;SHT31;54093;50.014;19.984;2023-02-28T10:34:17;5.18;54.29
67165;SHT31;54093;50.014;19.984;2023-02-28T10:43:40;5.58;53.85
67165;SHT31;54093;50.014;19.984;2023-02-28T11:02:42;6.13;52.66
67165;SHT31;54093;50.014;19.984;2023-02-28T11:12:23;6.20;50.64
67165;SHT31;54093;50.014;19.984;2023-02-28T11:21:51;6.06;51.06
67165;SHT31;54093;50.014;19.984;2023-02-28T12:00:26;5.58;48.99
67165;SHT31;54093;50.014;19.984;2023-02-28T12:29:50;5.73;50.22
67165;SHT31;54093;50.014;19.984;2023-02-28T12:39:35;6.03;49.43
67165;SHT31;54093;50.014;19.984;2023-02-28T12:49:10;6.11;49.40
67165;SHT31;54093;50.014;19.984;2023-02-28T12:58:38;6.31;47.54
67165;SHT31;54093;50.014;19.984;2023-02-28T13:17:27;6.79;46.94
67165;SHT31;54093;50.014;19.984;2023-02-28T13:36:30;7.57;46.62
67165;SHT31;54093;50.014;19.984;2023-02-28T13:46:06;7.92;47.81
67165;SHT31;54093;50.014;19.984;2023-02-28T13:55:59;8.12;44.89
67165;SHT31;54093;50.014;19.984;2023-02-28T14:05:22;7.89;45.56
67165;SHT31;54093;50.014;19.984;2023-02-28T14:24:32;7.98;46.01
67165;SHT31;54093;50.014;19.984;2023-02-28T14:43:32;7.23;47.69
67165;SHT31;54093;50.014;19.984;2023-02-28T14:52:54;6.88;48.44
67165;SHT31;54093;50.014;19.984;2023-02-28T15:02:25;6.25;49.14
67165;SHT31;54093;50.014;19.984;2023-02-28T15:11:48;5.77;52.22
67165;SHT31;54093;50.014;19.984;2023-02-28T15:21:41;5.30;53.27
67165;SHT31;54093;50.014;19.984;2023-02-28T15:31:28;4.62;54.29
67165;SHT31;54093;50.014;19.984;2023-02-28T15:40:52;4.29;55.17
67165;SHT31;54093;50.014;19.984;2023-02-28T15:50:16;4.05;57.56
67165;SHT31;54093;50.014;19.984;2023-02-28T15:59:37;3.81;57.94
67165;SHT31;54093;50.014;19.984;2023-02-28T16:08:58;3.64;59.29
67165;SHT31;54093;50.014;19.984;2023-02-28T16:18:19;3.39;60.00
67165;SHT31;54093;50.014;19.984;2023-02-28T16:27:42;3.18;60.25
67165;SHT31;54093;50.014;19.984;2023-02-28T16:37:09;3.07;60.65
67165;SHT31;54093;50.014;19.984;2023-02-28T16:46:33;2.94;61.79
67165;SHT31;54093;50.014;19.984;2023-02-28T16:55:54;2.73;61.62
67165;SHT31;54093;50.014;19.984;2023-02-28T17:05:16;2.60;62.28
67165;SHT31;54093;50.014;19.984;2023-02-28T17:14:38;2.29;61.59
67165;SHT31;54093;50.014;19.984;2023-02-28T17:23:59;2.01;62.88
67165;SHT31;54093;50.014;19.984;2023-02-28T17:33:20;1.85;64.01
67165;SHT31;54093;50.014;19.984;2023-02-28T17:42:42;1.66;64.82
67165;SHT31;54093;50.014;19.984;2023-02-28T17:52:03;1.47;65.46
67165;SHT31;54093;50.014;19.984;2023-02-28T18:01:25;1.27;65.55
67165;SHT31;54093;50.014;19.984;2023-02-28T18:10:46;1.12;66.04
67165;SHT31;54093;50.014;19.984;2023-02-28T18:20:09;0.96;66.75
67165;SHT31;54093;50.014;19.984;2023-02-28T18:29:31;0.84;67.18
67165;SHT31;54093;50.014;19.984;2023-02-28T18:38:53;0.72;68.05
67165;SHT31;54093;50.014;19.984;2023-02-28T18:48:14;0.58;68.46
67165;SHT31;54093;50.014;19.984;2023-02-28T18:57:36;0.46;68.51
67165;SHT31;54093;50.014;19.984;2023-02-28T19:06:57;0.31;69.37
67165;SHT31;54093;50.014;19.984;2023-02-28T19:16:20;0.20;69.72
67165;SHT31;54093;50.014;19.984;2023-02-28T19:25:41;0.16;70.40
67165;SHT31;54093;50.014;19.984;2023-02-28T19:35:03;0.00;70.30
67165;SHT31;54093;50.014;19.984;2023-02-28T19:44:24;-0.10;70.62
67165;SHT31;54093;50.014;19.984;2023-02-28T19:53:45;-0.15;70.97
67165;SHT31;54093;50.014;19.984;2023-02-28T20:03:06;-0.21;71.29
67165;SHT31;54093;50.014;19.984;2023-02-28T20:12:27;-0.33;71.90
67165;SHT31;54093;50.014;19.984;2023-02-28T20:21:49;-0.48;71.94
67165;SHT31;54093;50.014;19.984;2023-02-28T20:31:16;-0.49;72.55
67165;SHT31;54093;50.014;19.984;2023-02-28T20:40:38;-0.59;71.73
67165;SHT31;54093;50.014;19.984;2023-02-28T20:49:59;-0.66;72.49
67165;SHT31;54093;50.014;19.984;2023-02-28T20:59:20;-0.79;72.85
67165;SHT31;54093;50.014;19.984;2023-02-28T21:08:42;-0.74;72.61
67165;SHT31;54093;50.014;19.984;2023-02-28T21:18:03;-0.84;72.93
67165;SHT31;54093;50.014;19.984;2023-02-28T21:27:24;-0.97;72.61
67165;SHT31;54093;50.014;19.984;2023-02-28T21:36:45;-1.07;73.46
67165;SHT31;54093;50.014;19.984;2023-02-28T21:46:09;-1.14;73.69
67165;SHT31;54093;50.014;19.984;2023-02-28T21:55:33;-1.17;74.02
67165;SHT31;54093;50.014;19.984;2023-02-28T22:04:54;-1.30;73.58
67165;SHT31;54093;50.014;19.984;2023-02-28T22:14:15;-1.34;74.13
67165;SHT31;54093;50.014;19.984;2023-02-28T22:23:37;-1.49;74.02
67165;SHT31;54093;50.014;19.984;2023-02-28T22:32:59;-1.51;74.41
67165;SHT31;54093;50.014;19.984;2023-02-28T22:42:20;-1.52;73.59
67165;SHT31;54093;50.014;19.984;2023-02-28T22:51:41;-1.59;73.35
67165;SHT31;54093;50.014;19.984;2023-02-28T23:01:22;-1.65;73.57
67165;SHT31;54093;50.014;19.984;2023-02-28T23:10:43;-1.77;74.24
67165;SHT31;54093;50.014;19.984;2023-02-28T23:20:04;-1.85;74.10
67165;SHT31;54093;50.014;19.984;2023-02-28T23:29:26;-1.93;74.61
67165;SHT31;54093;50.014;19.984;2023-02-28T23:38:49;-2.06;74.60
67165;SHT31;54093;50.014;19.984;2023-02-28T23:48:11;-2.08;74.44
67165;SHT31;54093;50.014;19.984;2023-02-28T23:57:33;-2.24;75.50
